Etusivu
METAR-TAF:

METAR-TAF

Lentoasemat :

Acajutla, El Salvador

Leveyspiiri: 13-34N, Pituuspiiri: 089-50W, korkeus merenpinnasta: 15 m

Tämänhetkinen sää

Tämä raportti tehtiin 5 tuntia ja 15 minuuttia sitten, kello 05.50 UTC
Tuuli 3 kn idästä/koillisesta
Lämpötila 26°C
Kosteus 79%
Ilmanpaine 1011 hPa
Näkyvyys 10 km tai enemmän
Muutamia pilviä 3700 ft:n korkeudessa

METAR: MSAC 260550Z 06003KT 9999 FEW037 26/22 Q1010 A2984

Aika: 05:05 (11:05 UTC)


TAF: puuttuu

Säähavainnot ja -ennusteet yli 4000 lentoasemalta (METAR- ja TAF-raportit).

Käytössä olevat sääasemat on merkitty karttaan keltaisilla ja punaisilla pisteillä.

Aseta hiiri pisteen päälle nähdäksesi sääaseman nimen.

Klikkaa sitten nähdäksesi säähavainnot ja -ennusteet.

Kartan vaihtaminen: klikkaa mustalla rastilla varustettuja vihreitä pisteitä, niin voit zoomata sisään; viivalla varustettua vihreää pistettä, niin voit zoomata ulos tai vihreitä nuolia, niin pääset viereisille kartoille.


METAR-TAF: